Oxnard, California
Current Conditions -  °F | °C
As of 10:51 AM on Friday 24 Oct 2014 (Local Time) from KOXR Reporting Station
Clear Clear  
Wind Chill: 75°   Ceiling: Unl
Heat Index: 75°   Visibility: 10mi
Dew Point: 51°   Wind: 0mph
Humidity: 43%   Direction: NA
Pressure: 29.98"   Gusts: NA
Location:  34.2°N, 119.18°W
Report Text: KOXR 241751Z 00000KT 10SM CLR 24/11 A2998 RMK AO2 SLP152 T02390106 10239 20150 50003
Loading
Personal Weather Stations






























Interactive Weather Map
Tropical Storm Tracking
New forecast layout! Learn more

10-Day Weather Forecast

Advertisements
Track Severe Weather on mobile